Time;durP1;ratioP1;P1;durP2;ratioP2;P2;SDS_P1;SDS_P2;PMS_P1;PMS_P2;Temp;Humidity;BMP_temperature;BMP_pressure;BME280_temperature;BME280_humidity;BME280_pressure;Samples;Min_cycle;Max_cycle;Signal;HPM_P1;HPM_P2
2023/04/16 00:01:25;;;;;;;11.93;8.17;;;8.10;99.90;;;;;;5015872;28;20928;-93
2023/04/16 00:03:51;;;;;;;12.03;8.43;;;8.20;99.90;;;;;;5016466;28;20510;-92
2023/04/16 00:06:18;;;;;;;12.50;8.60;;;8.20;99.90;;;;;;5010688;28;20992;-92
2023/04/16 00:08:45;;;;;;;14.40;9.13;;;8.20;99.90;;;;;;5014904;28;20957;-92
2023/04/16 00:11:12;;;;;;;12.60;8.03;;;8.20;99.90;;;;;;5015996;28;20487;-92
2023/04/16 00:13:39;;;;;;;13.97;8.10;;;8.20;99.90;;;;;;5016135;28;20486;-92
2023/04/16 00:16:06;;;;;;;13.30;8.53;;;8.20;99.90;;;;;;5014575;28;20495;-92
2023/04/16 00:18:34;;;;;;;12.50;7.73;;;8.20;99.90;;;;;;5016177;28;20901;-92
2023/04/16 00:21:01;;;;;;;14.50;8.77;;;8.20;99.90;;;;;;5013460;28;20521;-92
2023/04/16 00:23:28;;;;;;;15.50;8.57;;;8.30;99.90;;;;;;5016510;28;20455;-92
2023/04/16 00:25:56;;;;;;;13.37;8.47;;;8.30;99.90;;;;;;5015043;28;20561;-92
2023/04/16 00:28:22;;;;;;;11.70;8.00;;;8.30;99.90;;;;;;5016560;28;20458;-92
2023/04/16 00:30:49;;;;;;;16.60;8.50;;;8.30;99.90;;;;;;5011596;28;20482;-92
2023/04/16 00:33:17;;;;;;;14.77;9.17;;;8.30;99.90;;;;;;5014145;28;20459;-92
2023/04/16 00:35:46;;;;;;;15.10;9.50;;;8.30;99.90;;;;;;5014669;28;20483;-92
2023/04/16 00:38:13;;;;;;;12.13;7.97;;;8.30;99.90;;;;;;5015876;28;20455;-92
2023/04/16 00:40:40;;;;;;;14.07;9.13;;;8.30;99.90;;;;;;5011015;28;20467;-92
2023/04/16 00:43:07;;;;;;;12.67;8.60;;;8.30;99.90;;;;;;5016211;28;20932;-92
2023/04/16 00:45:34;;;;;;;10.90;8.43;;;8.30;99.90;;;;;;5014813;28;20529;-92
2023/04/16 00:48:01;;;;;;;14.33;8.43;;;8.30;99.90;;;;;;5015242;28;20945;-92
2023/04/16 00:50:28;;;;;;;17.27;9.93;;;8.30;99.90;;;;;;5015494;28;20505;-92
2023/04/16 00:52:56;;;;;;;16.37;10.07;;;8.30;99.90;;;;;;5015867;28;20486;-93
2023/04/16 00:55:24;;;;;;;15.93;9.80;;;8.30;99.90;;;;;;5015863;28;20569;-92
2023/04/16 00:57:50;;;;;;;15.00;9.07;;;8.30;99.90;;;;;;5015020;28;20466;-92
2023/04/16 01:00:17;;;;;;;13.90;9.60;;;8.30;99.90;;;;;;5014149;28;20448;-91
2023/04/16 01:02:44;;;;;;;17.17;9.83;;;8.40;99.90;;;;;;5015783;28;20451;-92
2023/04/16 01:05:11;;;;;;;13.20;9.43;;;8.40;99.90;;;;;;5015569;28;20514;-92
2023/04/16 01:07:37;;;;;;;13.97;9.10;;;8.40;99.90;;;;;;5015745;28;20501;-93
2023/04/16 01:10:06;;;;;;;14.80;10.33;;;8.40;99.90;;;;;;5016032;28;20459;-92
2023/04/16 01:12:33;;;;;;;15.27;9.40;;;8.40;99.90;;;;;;5015563;28;20495;-92
2023/04/16 01:15:00;;;;;;;14.37;8.90;;;8.40;99.90;;;;;;5016079;28;20463;-92
2023/04/16 01:17:26;;;;;;;14.73;9.70;;;8.40;99.90;;;;;;5028869;28;20463;-92
2023/04/16 01:19:53;;;;;;;14.00;9.10;;;8.40;99.90;;;;;;5016539;28;20460;-92
2023/04/16 01:22:21;;;;;;;13.87;9.53;;;8.40;99.90;;;;;;5022585;28;20436;-92
2023/04/16 01:24:48;;;;;;;14.50;9.53;;;8.40;99.90;;;;;;5037327;28;20443;-92
2023/04/16 01:27:15;;;;;;;14.47;9.13;;;8.40;99.90;;;;;;5034529;28;20486;-92
2023/04/16 01:29:41;;;;;;;13.50;8.97;;;8.30;99.90;;;;;;5012240;28;20458;-93
2023/04/16 01:32:08;;;;;;;13.83;9.23;;;8.40;99.90;;;;;;5014676;28;21078;-91
2023/04/16 01:34:35;;;;;;;13.00;8.33;;;8.40;99.90;;;;;;5012761;28;20510;-92
2023/04/16 01:37:02;;;;;;;14.87;9.10;;;8.40;99.90;;;;;;5020106;28;20483;-92
2023/04/16 01:39:30;;;;;;;15.20;9.50;;;8.40;99.90;;;;;;5014097;28;20926;-92
2023/04/16 01:41:57;;;;;;;16.97;10.37;;;8.30;99.90;;;;;;5006526;28;20464;-92
2023/04/16 01:44:24;;;;;;;12.93;8.80;;;8.30;99.90;;;;;;5015183;28;20455;-92
2023/04/16 01:46:51;;;;;;;15.10;9.83;;;8.40;99.90;;;;;;5014416;28;20549;-93
2023/04/16 01:49:18;;;;;;;13.30;9.37;;;8.40;99.90;;;;;;5015195;28;20832;-92
2023/04/16 01:51:45;;;;;;;13.47;9.70;;;8.40;99.90;;;;;;5015464;28;20541;-92
2023/04/16 01:54:11;;;;;;;15.43;9.60;;;8.40;99.90;;;;;;5007249;28;20467;-92
2023/04/16 01:56:39;;;;;;;17.60;10.10;;;8.40;99.90;;;;;;5013293;28;20475;-92
2023/04/16 01:59:06;;;;;;;13.63;9.43;;;8.40;99.90;;;;;;5013941;28;20455;-92
2023/04/16 02:01:33;;;;;;;15.93;8.93;;;8.40;99.90;;;;;;5014331;28;20447;-92
2023/04/16 02:04:00;;;;;;;16.80;10.07;;;8.40;99.90;;;;;;5014974;28;20554;-93
2023/04/16 02:06:27;;;;;;;18.37;9.30;;;8.40;99.90;;;;;;5015223;28;20521;-92
2023/04/16 02:08:53;;;;;;;13.30;9.57;;;8.40;99.90;;;;;;5016068;28;20522;-93
2023/04/16 02:11:21;;;;;;;15.13;9.83;;;8.40;99.90;;;;;;5014627;28;20479;-93
2023/04/16 02:13:49;;;;;;;14.70;10.13;;;8.40;99.90;;;;;;5012629;28;20455;-92
2023/04/16 02:16:15;;;;;;;14.30;9.70;;;8.30;99.90;;;;;;5012611;28;20472;-92
2023/04/16 02:18:42;;;;;;;16.43;10.73;;;8.30;99.90;;;;;;5013884;28;20460;-92
2023/04/16 02:21:09;;;;;;;15.03;10.17;;;8.30;99.90;;;;;;5014543;28;20463;-92
2023/04/16 02:23:36;;;;;;;15.80;10.27;;;8.30;99.90;;;;;;5014649;28;20465;-92
2023/04/16 02:26:03;;;;;;;16.47;10.00;;;8.30;99.90;;;;;;5011342;28;20506;-92
2023/04/16 02:28:30;;;;;;;14.50;9.60;;;8.30;99.90;;;;;;5012393;28;20463;-92
2023/04/16 02:30:58;;;;;;;15.73;9.47;;;8.30;99.90;;;;;;5012021;28;20459;-92
2023/04/16 02:33:25;;;;;;;12.20;9.30;;;8.30;99.90;;;;;;5012814;28;21034;-92
2023/04/16 02:35:52;;;;;;;18.37;10.67;;;8.30;99.90;;;;;;5012567;28;20510;-92
2023/04/16 02:38:19;;;;;;;14.30;9.87;;;8.30;99.90;;;;;;5013960;28;20991;-92
2023/04/16 02:40:46;;;;;;;16.60;10.47;;;8.30;99.90;;;;;;5012970;28;20454;-92
2023/04/16 02:43:12;;;;;;;15.20;10.33;;;8.30;99.90;;;;;;5014477;28;20478;-91
2023/04/16 02:45:39;;;;;;;20.77;11.10;;;8.30;99.90;;;;;;5012716;28;20522;-91
2023/04/16 02:48:08;;;;;;;14.43;9.67;;;8.20;99.90;;;;;;5014232;28;20451;-92
2023/04/16 02:50:35;;;;;;;14.60;10.73;;;8.20;99.90;;;;;;5013338;28;20455;-92
2023/04/16 02:53:02;;;;;;;15.60;10.13;;;8.20;99.90;;;;;;5013514;28;20494;-92
2023/04/16 02:55:29;;;;;;;17.77;11.17;;;8.20;99.90;;;;;;5013687;28;20558;-92
2023/04/16 02:57:56;;;;;;;16.63;10.30;;;8.30;99.90;;;;;;5013614;28;20471;-91
2023/04/16 03:00:23;;;;;;;16.27;10.17;;;8.20;99.90;;;;;;5012874;28;20446;-92
2023/04/16 03:02:50;;;;;;;17.67;10.73;;;8.30;99.90;;;;;;5011238;28;20941;-92
2023/04/16 03:05:18;;;;;;;19.83;11.37;;;8.30;99.90;;;;;;5011892;28;20536;-92
2023/04/16 03:07:44;;;;;;;14.83;10.13;;;8.30;99.90;;;;;;5013039;28;20447;-92
2023/04/16 03:10:12;;;;;;;16.77;10.57;;;8.30;99.90;;;;;;5013217;28;20462;-92
2023/04/16 03:12:39;;;;;;;15.50;10.43;;;8.30;99.90;;;;;;5011570;28;20482;-92
2023/04/16 03:15:07;;;;;;;17.63;10.87;;;8.30;99.90;;;;;;5007717;28;20462;-92
2023/04/16 03:17:33;;;;;;;15.90;11.17;;;8.30;99.90;;;;;;5011673;28;20525;-91
2023/04/16 03:20:00;;;;;;;14.83;9.90;;;8.30;99.90;;;;;;5012287;28;20459;-92
2023/04/16 03:22:28;;;;;;;15.73;10.73;;;8.30;99.90;;;;;;5012770;28;20459;-92
2023/04/16 03:24:55;;;;;;;17.43;10.13;;;8.30;99.90;;;;;;5013425;28;20448;-92
2023/04/16 03:27:22;;;;;;;17.07;11.50;;;8.30;99.90;;;;;;5013707;28;20518;-92
2023/04/16 03:29:48;;;;;;;16.93;10.00;;;8.20;99.90;;;;;;5012431;28;20474;-91
2023/04/16 03:32:16;;;;;;;14.43;10.20;;;8.20;99.90;;;;;;5015618;28;20474;-92
2023/04/16 03:34:42;;;;;;;17.87;10.53;;;8.20;99.90;;;;;;5015601;28;20461;-89
2023/04/16 03:37:10;;;;;;;13.70;10.40;;;8.20;99.90;;;;;;5017482;28;20478;-92
2023/04/16 03:39:39;;;;;;;15.40;10.00;;;8.10;99.90;;;;;;5022470;28;20559;-91
2023/04/16 03:42:05;;;;;;;20.20;11.43;;;8.10;99.90;;;;;;5017339;28;20459;-92
2023/04/16 03:44:32;;;;;;;17.07;11.10;;;8.10;99.90;;;;;;5017234;28;20459;-90
2023/04/16 03:46:59;;;;;;;16.90;10.57;;;8.10;99.90;;;;;;5016904;28;20514;-91
2023/04/16 03:49:25;;;;;;;18.00;11.20;;;8.10;99.90;;;;;;5016409;28;20907;-93
2023/04/16 03:51:52;;;;;;;19.73;11.70;;;8.10;99.90;;;;;;5011182;28;20486;-92
2023/04/16 03:54:19;;;;;;;19.30;11.20;;;8.10;99.90;;;;;;5013746;28;20460;-92
2023/04/16 03:56:47;;;;;;;19.73;11.67;;;8.10;99.90;;;;;;5016039;28;20478;-92
2023/04/16 03:59:14;;;;;;;22.57;10.73;;;8.10;99.90;;;;;;5015999;28;20459;-91
2023/04/16 04:01:41;;;;;;;17.03;12.60;;;8.10;99.90;;;;;;5016663;28;20451;-92
2023/04/16 04:04:08;;;;;;;14.50;9.93;;;8.10;99.90;;;;;;5016944;28;20455;-93
2023/04/16 04:06:35;;;;;;;16.30;10.60;;;8.10;99.90;;;;;;5015898;28;20506;-92
2023/04/16 04:09:01;;;;;;;15.53;10.90;;;8.10;99.90;;;;;;5016901;28;20960;-93
2023/04/16 04:11:28;;;;;;;14.93;10.27;;;8.10;99.90;;;;;;5016048;28;20936;-92
2023/04/16 04:13:56;;;;;;;14.00;10.20;;;8.10;99.90;;;;;;5013788;28;20487;-92
2023/04/16 04:16:23;;;;;;;14.20;9.47;;;8.20;99.90;;;;;;5016325;28;20537;-92
2023/04/16 04:18:50;;;;;;;12.73;8.63;;;8.00;99.90;;;;;;5021286;28;20896;-92
2023/04/16 04:21:16;;;;;;;13.57;9.50;;;8.00;99.90;;;;;;5011766;28;20878;-91
2023/04/16 04:23:43;;;;;;;11.27;9.20;;;8.00;99.90;;;;;;5014905;28;20885;-92
2023/04/16 04:26:10;;;;;;;12.37;8.47;;;8.00;99.90;;;;;;5020675;28;20471;-92
2023/04/16 04:28:36;;;;;;;13.97;9.47;;;8.00;99.90;;;;;;5017048;28;20459;-92
2023/04/16 04:31:05;;;;;;;15.00;9.43;;;8.00;99.90;;;;;;5015190;28;20467;-92
2023/04/16 04:33:31;;;;;;;15.20;9.10;;;7.90;99.90;;;;;;5035574;28;20497;-92
2023/04/16 04:35:58;;;;;;;14.03;9.03;;;7.90;99.90;;;;;;5038159;28;20463;-92
2023/04/16 04:38:25;;;;;;;14.13;8.80;;;7.90;99.90;;;;;;5022951;28;20517;-93
2023/04/16 04:40:52;;;;;;;14.70;9.77;;;7.90;99.90;;;;;;5018018;28;21081;-93
2023/04/16 04:43:19;;;;;;;15.00;10.33;;;7.90;99.90;;;;;;5014275;28;20518;-93
2023/04/16 04:45:46;;;;;;;14.67;10.53;;;7.90;99.90;;;;;;5014021;28;20528;-93
2023/04/16 04:48:14;;;;;;;15.37;10.17;;;7.90;99.90;;;;;;5009068;28;20463;-92
2023/04/16 04:50:41;;;;;;;17.40;10.37;;;8.00;99.90;;;;;;5012846;28;20455;-92
2023/04/16 04:53:10;;;;;;;17.07;10.60;;;8.00;99.90;;;;;;5012743;28;20537;-92
2023/04/16 04:55:37;;;;;;;15.63;9.93;;;8.00;99.90;;;;;;5016493;28;20959;-93
2023/04/16 04:58:04;;;;;;;16.67;10.30;;;8.00;99.90;;;;;;5017154;28;20491;-92
2023/04/16 05:00:31;;;;;;;17.10;10.93;;;8.00;99.90;;;;;;5016331;28;20455;-92
2023/04/16 05:02:57;;;;;;;17.07;11.43;;;8.10;99.90;;;;;;5015925;28;20455;-91
2023/04/16 05:05:26;;;;;;;15.40;10.80;;;8.10;99.90;;;;;;5016123;28;22057;-92
2023/04/16 05:07:52;;;;;;;16.23;10.80;;;8.10;99.90;;;;;;5014374;28;21067;-92
2023/04/16 05:10:19;;;;;;;18.83;11.33;;;8.10;99.90;;;;;;5016819;28;20455;-92
2023/04/16 05:12:47;;;;;;;16.53;10.73;;;8.10;99.90;;;;;;5016976;28;20589;-92
2023/04/16 05:15:13;;;;;;;18.63;10.80;;;8.10;99.90;;;;;;5016250;28;20548;-92
2023/04/16 05:17:40;;;;;;;19.10;11.00;;;8.10;99.90;;;;;;5017100;28;20517;-92
2023/04/16 05:20:08;;;;;;;14.40;10.27;;;8.10;99.90;;;;;;5016639;28;20516;-92
2023/04/16 05:22:36;;;;;;;18.03;10.97;;;8.20;99.90;;;;;;5017002;28;20505;-92
2023/04/16 05:25:03;;;;;;;16.90;10.20;;;8.20;99.90;;;;;;5016643;28;20871;-92
2023/04/16 05:27:30;;;;;;;17.40;11.40;;;8.20;99.90;;;;;;5016115;28;20850;-92
2023/04/16 05:29:56;;;;;;;16.77;10.93;;;8.20;99.90;;;;;;5015798;28;20459;-91
2023/04/16 05:32:25;;;;;;;14.00;10.27;;;8.20;99.90;;;;;;5015691;28;20475;-92
2023/04/16 05:34:52;;;;;;;15.27;10.53;;;8.20;99.90;;;;;;5015709;28;20455;-92
2023/04/16 05:37:19;;;;;;;16.50;11.50;;;8.20;99.90;;;;;;5016670;28;20482;-91
2023/04/16 05:39:47;;;;;;;13.97;9.97;;;8.20;99.90;;;;;;5015444;28;20455;-91
2023/04/16 05:42:14;;;;;;;18.50;10.47;;;8.10;99.90;;;;;;5015608;28;20538;-91
2023/04/16 05:44:40;;;;;;;18.67;11.60;;;8.10;99.90;;;;;;5015330;28;20502;-91
2023/04/16 05:47:08;;;;;;;16.13;10.27;;;8.10;99.90;;;;;;5016139;28;20510;-92
2023/04/16 05:49:35;;;;;;;20.73;11.57;;;8.10;99.90;;;;;;5015915;28;20459;-92
2023/04/16 05:52:01;;;;;;;17.73;11.13;;;8.10;99.90;;;;;;5015563;28;20459;-92
2023/04/16 05:54:28;;;;;;;19.80;11.20;;;8.10;99.90;;;;;;5018011;28;20463;-93
2023/04/16 05:56:56;;;;;;;15.67;10.67;;;8.00;99.90;;;;;;5022092;28;20502;-92
2023/04/16 05:59:23;;;;;;;18.20;10.77;;;8.00;99.90;;;;;;5015140;28;21018;-92
2023/04/16 06:01:50;;;;;;;18.07;10.80;;;8.00;99.90;;;;;;5029234;28;20443;-91
2023/04/16 06:04:16;;;;;;;16.33;10.47;;;8.00;99.90;;;;;;5015171;28;20489;-91
2023/04/16 06:06:43;;;;;;;15.60;10.90;;;8.00;99.90;;;;;;5013500;28;20476;-91
2023/04/16 06:09:10;;;;;;;16.10;10.30;;;7.90;99.90;;;;;;5008905;28;20506;-93
2023/04/16 06:11:37;;;;;;;15.60;10.60;;;8.10;99.90;;;;;;5015201;28;20451;-91
2023/04/16 06:14:05;;;;;;;19.03;11.87;;;8.10;99.90;;;;;;5016216;28;20940;-92
2023/04/16 06:16:31;;;;;;;17.50;11.53;;;8.10;99.90;;;;;;5014144;28;20486;-91
2023/04/16 06:18:58;;;;;;;19.30;11.37;;;8.10;99.90;;;;;;5007936;28;20475;-91
2023/04/16 06:21:25;;;;;;;18.73;11.77;;;8.10;99.90;;;;;;5015518;28;20455;-94
2023/04/16 06:23:52;;;;;;;22.97;13.80;;;8.10;99.90;;;;;;5014144;28;20811;-93
2023/04/16 06:26:18;;;;;;;18.47;12.07;;;8.10;99.90;;;;;;5015235;28;20747;-92
2023/04/16 06:28:45;;;;;;;18.60;11.80;;;8.10;99.90;;;;;;5014461;28;20478;-92
2023/04/16 06:31:13;;;;;;;20.90;12.90;;;8.10;99.90;;;;;;5012011;28;20870;-93
2023/04/16 06:33:40;;;;;;;20.70;12.37;;;8.20;99.90;;;;;;5017607;28;20532;-92
2023/04/16 06:36:07;;;;;;;22.47;13.03;;;8.20;99.90;;;;;;5016400;28;20533;-92
2023/04/16 06:38:33;;;;;;;21.00;13.03;;;8.20;99.90;;;;;;5015752;28;20455;-90
2023/04/16 06:41:00;;;;;;;21.67;13.60;;;8.20;99.90;;;;;;5015200;28;20897;-92
2023/04/16 06:43:28;;;;;;;22.50;12.93;;;8.20;99.90;;;;;;5018193;28;20456;-93
2023/04/16 06:45:55;;;;;;;24.07;14.80;;;8.30;99.90;;;;;;5013944;28;20486;-93
2023/04/16 06:48:23;;;;;;;23.23;13.27;;;8.30;99.90;;;;;;5016190;28;20455;-93
2023/04/16 06:50:50;;;;;;;17.33;12.03;;;8.30;99.90;;;;;;5020554;28;20869;-93
2023/04/16 06:53:17;;;;;;;24.33;13.60;;;8.30;99.90;;;;;;5018379;28;20506;-93
2023/04/16 06:55:44;;;;;;;24.20;13.80;;;8.40;99.90;;;;;;5015997;28;20483;-94
2023/04/16 06:58:11;;;;;;;25.07;13.50;;;8.40;99.90;;;;;;5021164;28;20452;-95
2023/04/16 07:00:37;;;;;;;24.30;13.60;;;8.50;99.90;;;;;;5022521;28;20478;-93
2023/04/16 07:03:04;;;;;;;20.00;13.00;;;8.50;99.90;;;;;;5021042;28;20459;-93
2023/04/16 07:05:32;;;;;;;22.20;13.20;;;8.50;99.90;;;;;;5015933;28;20521;-92
2023/04/16 07:07:59;;;;;;;20.40;12.93;;;8.60;99.90;;;;;;5013712;28;21034;-93
2023/04/16 07:10:26;;;;;;;18.37;12.27;;;8.70;99.90;;;;;;5015112;28;20463;-93
2023/04/16 07:12:53;;;;;;;21.67;12.47;;;8.70;99.90;;;;;;5025624;28;20486;-92
2023/04/16 07:15:20;;;;;;;22.50;13.37;;;8.70;99.90;;;;;;5018713;28;20483;-93
2023/04/16 07:17:46;;;;;;;20.47;12.60;;;8.80;99.90;;;;;;5021217;28;20481;-93
2023/04/16 07:20:13;;;;;;;25.70;13.57;;;8.80;99.90;;;;;;5012090;28;20463;-92
2023/04/16 07:22:42;;;;;;;18.90;12.73;;;8.90;99.90;;;;;;5009141;28;20463;-92
2023/04/16 07:25:09;;;;;;;25.50;13.53;;;8.90;99.90;;;;;;5014059;28;20467;-91
2023/04/16 07:27:36;;;;;;;19.33;12.20;;;9.10;99.90;;;;;;5014456;28;20509;-91
2023/04/16 07:30:03;;;;;;;22.53;13.07;;;9.00;99.90;;;;;;5016161;28;20513;-92
2023/04/16 07:32:29;;;;;;;22.30;12.27;;;9.00;99.90;;;;;;5015707;28;20517;-90
2023/04/16 07:34:56;;;;;;;22.60;13.07;;;9.10;99.90;;;;;;5013597;28;20483;-91
2023/04/16 07:37:23;;;;;;;17.20;11.40;;;9.10;99.90;;;;;;5021026;28;20543;-93
2023/04/16 07:39:51;;;;;;;21.00;12.70;;;9.20;99.90;;;;;;5033159;28;20486;-93
2023/04/16 07:42:18;;;;;;;24.13;13.10;;;9.30;99.90;;;;;;5030810;28;20451;-93
2023/04/16 07:44:45;;;;;;;20.43;12.40;;;9.30;99.90;;;;;;5013516;28;20505;-90
2023/04/16 07:47:11;;;;;;;19.20;12.23;;;9.30;99.90;;;;;;5011077;28;20529;-95
2023/04/16 07:49:38;;;;;;;22.70;13.33;;;9.40;99.90;;;;;;5011900;28;20470;-92
2023/04/16 07:52:05;;;;;;;19.70;12.07;;;9.40;99.90;;;;;;5013193;28;20468;-93
2023/04/16 07:54:32;;;;;;;21.10;13.17;;;9.50;99.90;;;;;;5018113;28;21016;-93
2023/04/16 07:57:00;;;;;;;21.70;12.80;;;9.50;99.90;;;;;;5029596;28;20479;-96
2023/04/16 07:59:27;;;;;;;19.73;12.80;;;9.50;99.90;;;;;;5035869;28;20447;-96
2023/04/16 08:01:54;;;;;;;18.93;12.63;;;9.50;99.90;;;;;;5021798;28;20455;-93
2023/04/16 08:04:23;;;;;;;19.90;13.07;;;9.50;99.90;;;;;;5017240;28;20454;-93
2023/04/16 08:06:50;;;;;;;21.07;12.07;;;9.50;99.90;;;;;;5007408;28;20484;-93
2023/04/16 08:09:17;;;;;;;21.73;13.23;;;9.70;99.90;;;;;;5013113;28;20455;-92
2023/04/16 08:11:43;;;;;;;20.07;13.07;;;9.70;99.90;;;;;;5014949;28;20451;-93
2023/04/16 08:14:11;;;;;;;920.75;211.18;;;9.90;99.90;;;;;;5014679;28;20968;-92
2023/04/16 08:16:39;;;;;;;467.13;78.03;;;10.00;99.90;;;;;;5009316;28;20689;-93
2023/04/16 08:19:06;;;;;;;20.40;13.20;;;10.00;99.90;;;;;;5015240;28;20238;-92
2023/04/16 08:21:33;;;;;;;19.73;12.67;;;10.10;99.90;;;;;;5031873;28;20551;-95
2023/04/16 08:24:00;;;;;;;23.90;14.67;;;10.30;99.90;;;;;;5034210;28;20434;-95
2023/04/16 08:26:27;;;;;;;21.53;13.37;;;10.40;99.90;;;;;;5033511;28;20537;-95
2023/04/16 08:28:54;;;;;;;22.10;12.73;;;10.40;99.90;;;;;;5033324;28;20467;-95
2023/04/16 08:31:22;;;;;;;18.77;12.40;;;10.40;99.90;;;;;;5032278;28;20455;-96
2023/04/16 08:33:49;;;;;;;23.10;13.07;;;10.50;99.90;;;;;;5032470;28;20482;-95
2023/04/16 08:36:16;;;;;;;19.97;12.53;;;;;;;;;;5032755;28;20562;-94
2023/04/16 08:38:43;;;;;;;20.70;13.00;;;10.70;99.90;;;;;;5032326;28;20451;-95
2023/04/16 08:41:12;;;;;;;20.47;12.53;;;10.80;99.90;;;;;;5034480;28;20460;-94
2023/04/16 08:43:44;;;;;;;22.33;13.17;;;10.80;99.90;;;;;;5026358;28;20452;-95
2023/04/16 08:46:11;;;;;;;19.97;12.47;;;10.80;99.90;;;;;;5033316;28;20477;-96
2023/04/16 08:48:43;;;;;;;17.93;12.10;;;10.90;99.90;;;;;;5030286;28;20879;-93
2023/04/16 08:51:11;;;;;;;21.57;13.63;;;11.00;99.90;;;;;;5031226;28;20443;-95
2023/04/16 08:53:48;;;;;;;22.10;12.50;;;11.10;99.90;;;;;;5032981;28;20479;-94
2023/04/16 08:56:18;;;;;;;17.50;11.83;;;11.20;99.90;;;;;;5034504;28;20506;-96
2023/04/16 08:58:47;;;;;;;16.53;11.13;;;11.20;99.90;;;;;;5024166;28;20464;-92
2023/04/16 09:01:16;;;;;;;18.90;11.47;;;11.30;99.90;;;;;;5023658;28;20459;-93
2023/04/16 09:03:46;;;;;;;15.47;11.30;;;11.40;99.90;;;;;;5019196;28;20471;-91
2023/04/16 09:06:14;;;;;;;17.50;12.20;;;11.40;99.90;;;;;;5021619;28;20471;-92
2023/04/16 09:08:41;;;;;;;18.43;12.53;;;11.40;99.90;;;;;;5018907;28;20466;-90
2023/04/16 09:11:08;;;;;;;17.13;11.70;;;11.60;99.90;;;;;;5017720;28;20459;-92
2023/04/16 09:13:34;;;;;;;18.70;10.93;;;11.40;99.90;;;;;;5035220;28;20495;-93
2023/04/16 09:16:02;;;;;;;19.83;11.33;;;11.40;99.90;;;;;;5028481;28;20537;-93
2023/04/16 09:18:28;;;;;;;17.93;11.03;;;11.40;99.90;;;;;;5021011;28;20471;-91
2023/04/16 09:20:56;;;;;;;17.67;11.40;;;11.30;99.90;;;;;;5019357;28;20853;-91
2023/04/16 09:23:23;;;;;;;21.77;11.80;;;11.20;99.90;;;;;;5017090;28;20903;-92
2023/04/16 09:25:50;;;;;;;19.13;11.80;;;11.10;99.90;;;;;;5017267;28;20483;-93
2023/04/16 09:28:38;;;;;;;18.67;11.90;;;11.10;99.90;;;;;;5017652;28;20491;-93
2023/04/16 09:31:10;;;;;;;17.60;11.80;;;11.00;99.90;;;;;;5016574;28;20451;-93
2023/04/16 09:37:15;;;;;;;17.57;11.53;;;10.90;99.90;;;;;;5013479;28;20478;-76
2023/04/16 09:39:42;;;;;;;17.67;11.93;;;10.90;99.90;;;;;;5013470;28;20479;-77
2023/04/16 09:42:09;;;;;;;18.35;12.13;;;10.80;99.90;;;;;;5015945;28;20443;-77
2023/04/16 09:44:37;;;;;;;19.17;12.20;;;10.70;99.90;;;;;;5013777;28;20200;-77
2023/04/16 09:47:06;;;;;;;20.27;12.17;;;10.70;99.90;;;;;;5010989;28;21002;-77
2023/04/16 09:49:34;;;;;;;19.30;12.13;;;10.60;99.90;;;;;;5018433;28;20471;-74
2023/04/16 09:52:01;;;;;;;17.10;11.90;;;10.60;99.90;;;;;;5011435;28;20450;-75
2023/04/16 09:54:30;;;;;;;17.33;12.20;;;10.50;99.90;;;;;;5015710;28;20498;-77
2023/04/16 09:56:57;;;;;;;22.73;11.50;;;10.50;99.90;;;;;;5007173;28;20455;-77
2023/04/16 09:59:24;;;;;;;16.07;11.03;;;10.40;99.90;;;;;;5013695;28;20479;-76
2023/04/16 10:01:52;;;;;;;17.97;11.70;;;10.40;99.90;;;;;;5013352;28;20546;-77
2023/04/16 10:04:18;;;;;;;17.67;11.67;;;10.40;99.90;;;;;;5013892;28;20482;-78
2023/04/16 10:07:02;;;;;;;16.83;11.77;;;10.40;99.90;;;;;;5011313;28;20451;-78
2023/04/16 10:09:32;;;;;;;17.90;12.00;;;10.40;99.90;;;;;;5010695;28;20868;-78
2023/04/16 10:11:59;;;;;;;17.13;11.77;;;10.40;99.90;;;;;;5010367;28;20904;-77
2023/04/16 10:14:26;;;;;;;17.43;11.93;;;10.30;99.90;;;;;;5006243;28;20860;-74
2023/04/16 10:16:53;;;;;;;14.67;10.80;;;10.30;99.90;;;;;;5010404;28;20506;-75
2023/04/16 10:19:21;;;;;;;15.43;11.33;;;10.30;99.90;;;;;;5011344;28;20565;-77
2023/04/16 10:21:48;;;;;;;19.20;11.77;;;10.30;99.90;;;;;;5011041;28;21000;-77
2023/04/16 10:24:16;;;;;;;15.27;11.43;;;10.30;99.90;;;;;;5005347;28;20997;-77
2023/04/16 10:26:45;;;;;;;20.90;12.40;;;10.30;99.90;;;;;;5011410;28;20454;-77
2023/04/16 10:29:12;;;;;;;17.43;11.90;;;10.30;99.90;;;;;;5010122;28;20486;-78
2023/04/16 10:31:40;;;;;;;20.40;12.33;;;10.30;99.90;;;;;;5002601;28;20467;-77
2023/04/16 10:34:09;;;;;;;17.83;12.87;;;10.30;99.90;;;;;;5010601;28;20494;-77
2023/04/16 10:36:37;;;;;;;21.00;12.80;;;10.30;99.90;;;;;;5009397;28;20463;-75
2023/04/16 10:39:04;;;;;;;19.57;11.80;;;10.30;99.90;;;;;;5009859;28;20479;-76
2023/04/16 10:41:32;;;;;;;16.00;12.13;;;10.30;99.90;;;;;;5010152;28;20498;-77
2023/04/16 10:44:08;;;;;;;17.47;12.17;;;10.40;99.90;;;;;;5009942;28;20502;-78
2023/04/16 10:46:37;;;;;;;19.00;12.50;;;10.30;99.90;;;;;;5009684;28;20504;-77
2023/04/16 10:49:15;;;;;;;21.17;12.80;;;10.40;99.90;;;;;;5010041;28;20478;-75
2023/04/16 10:51:42;;;;;;;19.30;13.10;;;10.40;99.90;;;;;;5007945;28;20509;-76
2023/04/16 10:54:26;;;;;;;15.77;12.17;;;10.40;99.90;;;;;;5010028;28;20564;-74
2023/04/16 10:56:54;;;;;;;17.27;12.43;;;10.40;99.90;;;;;;5007600;28;20488;-75
2023/04/16 10:59:23;;;;;;;19.03;12.90;;;10.40;99.90;;;;;;5010122;28;20529;-75
2023/04/16 11:01:51;;;;;;;18.27;13.30;;;10.40;99.90;;;;;;5006194;28;20455;-76
2023/04/16 11:04:32;;;;;;;17.53;12.63;;;10.40;99.90;;;;;;5005112;28;20447;-76
2023/04/16 11:07:06;;;;;;;19.80;13.20;;;10.40;99.90;;;;;;5008688;28;20486;-76
2023/04/16 11:09:51;;;;;;;20.73;11.77;;;10.40;99.90;;;;;;5009735;28;20544;-76
2023/04/16 11:12:19;;;;;;;17.70;12.17;;;10.40;99.90;;;;;;5008328;28;20459;-76
2023/04/16 11:14:50;;;;;;;16.53;12.80;;;10.40;99.90;;;;;;5003099;28;20487;-76
2023/04/16 11:17:17;;;;;;;21.77;12.82;;;10.50;99.90;;;;;;5005885;28;20465;-75
2023/04/16 11:19:44;;;;;;;20.00;13.83;;;10.50;99.90;;;;;;5005230;28;20281;-76
2023/04/16 11:22:13;;;;;;;19.00;12.63;;;10.60;99.90;;;;;;5006493;28;20451;-74
2023/04/16 11:24:41;;;;;;;20.57;14.20;;;10.70;99.90;;;;;;4999225;28;20966;-76
2023/04/16 11:27:07;;;;;;;20.63;13.40;;;10.70;99.90;;;;;;5010173;28;20966;-76
2023/04/16 11:29:34;;;;;;;18.40;13.20;;;10.80;99.90;;;;;;5008262;28;20501;-75
2023/04/16 11:32:02;;;;;;;20.90;14.30;;;10.70;99.90;;;;;;5002364;28;20460;-76
2023/04/16 11:34:29;;;;;;;25.77;16.77;;;10.80;99.90;;;;;;4998516;28;20540;-75
2023/04/16 11:36:56;;;;;;;25.23;16.63;;;10.80;99.90;;;;;;5010521;28;20459;-75
2023/04/16 11:39:23;;;;;;;28.47;18.50;;;10.80;99.90;;;;;;5005325;28;21057;-75
2023/04/16 11:41:52;;;;;;;30.30;20.40;;;10.80;99.90;;;;;;5002645;28;20452;-75
2023/04/16 11:44:20;;;;;;;35.53;20.23;;;10.80;99.90;;;;;;5003807;28;20455;-75
2023/04/16 11:46:47;;;;;;;34.07;21.30;;;10.90;99.90;;;;;;5003519;28;20459;-75
2023/04/16 11:49:16;;;;;;;26.93;18.93;;;10.90;99.90;;;;;;5011783;28;20524;-75
2023/04/16 11:51:43;;;;;;;29.87;19.00;;;10.90;99.90;;;;;;5004408;28;20887;-74
2023/04/16 11:54:17;;;;;;;28.67;18.53;;;11.00;99.90;;;;;;5015271;28;20454;-75
2023/04/16 11:56:47;;;;;;;29.97;19.60;;;11.10;99.90;;;;;;5009506;28;20456;-75
2023/04/16 11:59:16;;;;;;;35.83;21.33;;;11.30;99.90;;;;;;5013920;28;20474;-74
2023/04/16 12:01:46;;;;;;;28.40;19.00;;;11.40;99.90;;;;;;5013388;28;20459;-75
2023/04/16 12:04:15;;;;;;;30.83;20.17;;;11.50;99.90;;;;;;5015112;28;20455;-74
2023/04/16 12:06:57;;;;;;;32.97;20.60;;;11.70;99.90;;;;;;5012215;28;20914;-74
2023/04/16 12:09:24;;;;;;;31.70;19.20;;;11.80;99.90;;;;;;5007896;28;20471;-75
2023/04/16 12:11:51;;;;;;;27.63;18.70;;;12.00;99.90;;;;;;5013613;28;20455;-76
2023/04/16 12:14:18;;;;;;;27.97;17.70;;;12.10;99.90;;;;;;5006013;28;20463;-76
2023/04/16 12:16:44;;;;;;;29.00;18.27;;;12.30;99.90;;;;;;5013042;28;20451;-75
2023/04/16 12:19:12;;;;;;;26.97;18.20;;;12.60;99.90;;;;;;5015290;28;20549;-74
2023/04/16 12:21:43;;;;;;;25.60;18.03;;;12.90;99.90;;;;;;4996303;28;20464;-78
2023/04/16 12:24:11;;;;;;;24.60;16.97;;;13.20;99.90;;;;;;5020060;28;21067;-76
2023/04/16 12:26:43;;;;;;;23.60;15.60;;;13.70;99.90;;;;;;5015423;28;20468;-75
2023/04/16 12:29:18;;;;;;;19.30;14.37;;;14.10;99.90;;;;;;5017074;28;21061;-75
2023/04/16 12:31:45;;;;;;;24.10;15.37;;;14.50;99.90;;;;;;5013218;28;20455;-75
2023/04/16 12:34:13;;;;;;;26.60;15.23;;;14.60;99.90;;;;;;5006224;28;20467;-75
2023/04/16 12:36:42;;;;;;;21.13;15.13;;;14.60;99.90;;;;;;5013877;28;20812;-75
2023/04/16 12:39:09;;;;;;;22.77;15.30;;;14.70;99.90;;;;;;5009815;28;20553;-76
2023/04/16 12:41:37;;;;;;;20.87;15.50;;;14.80;99.90;;;;;;5009083;28;20958;-75